sensor_id;sensor_type;location;lat;lon;timestamp;P1;durP1;ratioP1;P2;durP2;ratioP2
36833;SDS011;48003;52.084;5.224;2022-12-07T00:00:27;9.6;;;4.0;;
36833;SDS011;48003;52.084;5.224;2022-12-07T00:02:03;7.0;;;3.9;;
36833;SDS011;48003;52.084;5.224;2022-12-07T00:05:17;7.5;;;3.6;;
36833;SDS011;48003;52.084;5.224;2022-12-07T00:06:53;11.1;;;4.3;;
36833;SDS011;48003;52.084;5.224;2022-12-07T00:08:30;9.21;;;3.9;;
36833;SDS011;48003;52.084;5.224;2022-12-07T00:11:45;7.3;;;3.9;;
36833;SDS011;48003;52.084;5.224;2022-12-07T00:13:25;10.0;;;4.0;;
36833;SDS011;48003;52.084;5.224;2022-12-07T00:15:02;8.2;;;4.0;;
36833;SDS011;48003;52.084;5.224;2022-12-07T00:16:38;10.9;;;3.5;;
36833;SDS011;48003;52.084;5.224;2022-12-07T00:19:52;10.1;;;3.6;;
36833;SDS011;48003;52.084;5.224;2022-12-07T00:21:29;9.1;;;3.5;;
36833;SDS011;48003;52.084;5.224;2022-12-07T00:23:07;12.1;;;3.8;;
36833;SDS011;48003;52.084;5.224;2022-12-07T00:26:20;8.0;;;3.3;;
36833;SDS011;48003;52.084;5.224;2022-12-07T00:27:58;8.4;;;3.4;;
36833;SDS011;48003;52.084;5.224;2022-12-07T00:29:34;9.81;;;3.8;;
36833;SDS011;48003;52.084;5.224;2022-12-07T00:31:11;9.9;;;3.7;;
36833;SDS011;48003;52.084;5.224;2022-12-07T00:34:24;11.1;;;3.6;;
36833;SDS011;48003;52.084;5.224;2022-12-07T00:36:01;7.6;;;3.2;;
36833;SDS011;48003;52.084;5.224;2022-12-07T00:37:39;7.9;;;3.5;;
36833;SDS011;48003;52.084;5.224;2022-12-07T00:40:54;10.1;;;3.8;;
36833;SDS011;48003;52.084;5.224;2022-12-07T00:42:32;9.9;;;4.1;;
36833;SDS011;48003;52.084;5.224;2022-12-07T00:44:08;8.4;;;3.7;;
36833;SDS011;48003;52.084;5.224;2022-12-07T00:45:44;9.81;;;3.6;;
36833;SDS011;48003;52.084;5.224;2022-12-07T00:48:57;9.6;;;3.9;;
36833;SDS011;48003;52.084;5.224;2022-12-07T00:50:33;10.3;;;4.0;;
36833;SDS011;48003;52.084;5.224;2022-12-07T00:52:09;10.5;;;4.0;;
36833;SDS011;48003;52.084;5.224;2022-12-07T00:55:22;8.6;;;3.7;;
36833;SDS011;48003;52.084;5.224;2022-12-07T00:56:59;9.5;;;3.9;;
36833;SDS011;48003;52.084;5.224;2022-12-07T00:58:35;10.3;;;3.5;;
36833;SDS011;48003;52.084;5.224;2022-12-07T01:01:48;8.81;;;3.6;;
36833;SDS011;48003;52.084;5.224;2022-12-07T01:03:24;10.0;;;3.7;;
36833;SDS011;48003;52.084;5.224;2022-12-07T01:05:00;7.2;;;3.5;;
36833;SDS011;48003;52.084;5.224;2022-12-07T01:06:37;8.6;;;3.4;;
36833;SDS011;48003;52.084;5.224;2022-12-07T01:09:50;6.3;;;3.5;;
36833;SDS011;48003;52.084;5.224;2022-12-07T01:11:27;9.71;;;3.2;;
36833;SDS011;48003;52.084;5.224;2022-12-07T01:13:05;8.9;;;3.2;;
36833;SDS011;48003;52.084;5.224;2022-12-07T01:16:18;7.1;;;3.1;;
36833;SDS011;48003;52.084;5.224;2022-12-07T01:17:56;5.8;;;3.2;;
36833;SDS011;48003;52.084;5.224;2022-12-07T01:19:32;9.71;;;3.1;;
36833;SDS011;48003;52.084;5.224;2022-12-07T01:22:47;10.1;;;3.4;;
36833;SDS011;48003;52.084;5.224;2022-12-07T01:24:24;7.3;;;3.0;;
36833;SDS011;48003;52.084;5.224;2022-12-07T01:26:00;8.2;;;3.1;;
36833;SDS011;48003;52.084;5.224;2022-12-07T01:27:39;8.2;;;3.2;;
36833;SDS011;48003;52.084;5.224;2022-12-07T01:30:55;7.9;;;2.7;;
36833;SDS011;48003;52.084;5.224;2022-12-07T01:32:32;6.9;;;2.5;;
36833;SDS011;48003;52.084;5.224;2022-12-07T01:34:10;8.71;;;2.8;;
36833;SDS011;48003;52.084;5.224;2022-12-07T01:37:22;5.3;;;2.31;;
36833;SDS011;48003;52.084;5.224;2022-12-07T01:38:58;9.21;;;2.8;;
36833;SDS011;48003;52.084;5.224;2022-12-07T01:40:36;9.1;;;2.8;;
36833;SDS011;48003;52.084;5.224;2022-12-07T01:42:12;5.0;;;2.6;;
36833;SDS011;48003;52.084;5.224;2022-12-07T01:45:59;6.6;;;2.7;;
36833;SDS011;48003;52.084;5.224;2022-12-07T01:47:39;9.31;;;2.9;;
36833;SDS011;48003;52.084;5.224;2022-12-07T01:51:01;9.0;;;2.5;;
36833;SDS011;48003;52.084;5.224;2022-12-07T01:52:41;8.1;;;2.9;;
36833;SDS011;48003;52.084;5.224;2022-12-07T01:56:01;7.7;;;2.6;;
36833;SDS011;48003;52.084;5.224;2022-12-07T01:57:39;6.9;;;3.0;;
36833;SDS011;48003;52.084;5.224;2022-12-07T01:59:19;5.6;;;2.8;;
36833;SDS011;48003;52.084;5.224;2022-12-07T02:04:18;9.31;;;2.6;;
36833;SDS011;48003;52.084;5.224;2022-12-07T02:05:55;7.7;;;2.5;;
36833;SDS011;48003;52.084;5.224;2022-12-07T02:07:33;6.8;;;2.9;;
36833;SDS011;48003;52.084;5.224;2022-12-07T02:10:51;6.8;;;2.31;;
36833;SDS011;48003;52.084;5.224;2022-12-07T02:12:27;10.0;;;2.5;;
36833;SDS011;48003;52.084;5.224;2022-12-07T02:14:04;10.0;;;2.6;;
36833;SDS011;48003;52.084;5.224;2022-12-07T02:15:44;10.0;;;2.6;;
36833;SDS011;48003;52.084;5.224;2022-12-07T02:19:46;7.7;;;2.21;;
36833;SDS011;48003;52.084;5.224;2022-12-07T02:22:14;9.71;;;2.5;;
36833;SDS011;48003;52.084;5.224;2022-12-07T02:24:14;9.81;;;3.7;;
36833;SDS011;48003;52.084;5.224;2022-12-07T02:26:55;9.71;;;2.1;;
36833;SDS011;48003;52.084;5.224;2022-12-07T02:29:30;6.4;;;2.5;;
36833;SDS011;48003;52.084;5.224;2022-12-07T02:31:13;9.1;;;2.21;;
36833;SDS011;48003;52.084;5.224;2022-12-07T02:32:56;7.4;;;2.31;;
36833;SDS011;48003;52.084;5.224;2022-12-07T02:34:41;8.6;;;2.31;;
36833;SDS011;48003;52.084;5.224;2022-12-07T02:38:10;8.81;;;2.21;;
36833;SDS011;48003;52.084;5.224;2022-12-07T02:39:53;8.2;;;2.9;;
36833;SDS011;48003;52.084;5.224;2022-12-07T02:41:35;8.4;;;2.6;;
36833;SDS011;48003;52.084;5.224;2022-12-07T02:43:18;10.9;;;2.5;;
36833;SDS011;48003;52.084;5.224;2022-12-07T02:45:01;6.6;;;2.5;;
36833;SDS011;48003;52.084;5.224;2022-12-07T02:48:20;9.0;;;2.6;;
36833;SDS011;48003;52.084;5.224;2022-12-07T02:49:57;8.71;;;2.31;;
36833;SDS011;48003;52.084;5.224;2022-12-07T02:51:33;7.9;;;2.6;;
36833;SDS011;48003;52.084;5.224;2022-12-07T02:55:25;8.81;;;2.6;;
36833;SDS011;48003;52.084;5.224;2022-12-07T02:57:08;10.0;;;2.6;;
36833;SDS011;48003;52.084;5.224;2022-12-07T02:59:00;8.9;;;2.5;;
36833;SDS011;48003;52.084;5.224;2022-12-07T03:00:56;6.4;;;2.21;;
36833;SDS011;48003;52.084;5.224;2022-12-07T03:02:48;8.0;;;2.5;;
36833;SDS011;48003;52.084;5.224;2022-12-07T03:04:33;7.7;;;2.4;;
36833;SDS011;48003;52.084;5.224;2022-12-07T03:06:20;6.7;;;2.1;;
36833;SDS011;48003;52.084;5.224;2022-12-07T03:08:05;5.8;;;2.31;;
36833;SDS011;48003;52.084;5.224;2022-12-07T03:11:37;7.6;;;2.4;;
36833;SDS011;48003;52.084;5.224;2022-12-07T03:13:22;11.8;;;2.8;;
36833;SDS011;48003;52.084;5.224;2022-12-07T03:15:05;7.7;;;2.0;;
36833;SDS011;48003;52.084;5.224;2022-12-07T03:16:49;9.0;;;2.6;;
36833;SDS011;48003;52.084;5.224;2022-12-07T03:18:32;7.8;;;2.21;;
36833;SDS011;48003;52.084;5.224;2022-12-07T03:21:57;7.7;;;2.4;;
36833;SDS011;48003;52.084;5.224;2022-12-07T03:23:39;6.6;;;2.31;;
36833;SDS011;48003;52.084;5.224;2022-12-07T03:25:20;10.1;;;2.4;;
36833;SDS011;48003;52.084;5.224;2022-12-07T03:26:59;11.5;;;2.31;;
36833;SDS011;48003;52.084;5.224;2022-12-07T03:30:31;11.4;;;2.5;;
36833;SDS011;48003;52.084;5.224;2022-12-07T03:32:14;8.31;;;2.21;;
36833;SDS011;48003;52.084;5.224;2022-12-07T03:34:02;8.0;;;2.0;;
36833;SDS011;48003;52.084;5.224;2022-12-07T03:35:52;7.9;;;2.1;;
36833;SDS011;48003;52.084;5.224;2022-12-07T03:37:36;6.8;;;2.4;;
36833;SDS011;48003;52.084;5.224;2022-12-07T03:41:03;6.3;;;2.21;;
36833;SDS011;48003;52.084;5.224;2022-12-07T03:42:45;9.4;;;2.8;;
36833;SDS011;48003;52.084;5.224;2022-12-07T03:44:22;10.4;;;2.31;;
36833;SDS011;48003;52.084;5.224;2022-12-07T03:46:01;6.5;;;2.0;;
36833;SDS011;48003;52.084;5.224;2022-12-07T03:47:52;7.3;;;2.31;;
36833;SDS011;48003;52.084;5.224;2022-12-07T03:51:22;5.5;;;2.1;;
36833;SDS011;48003;52.084;5.224;2022-12-07T03:53:05;4.8;;;2.0;;
36833;SDS011;48003;52.084;5.224;2022-12-07T03:54:49;8.9;;;2.31;;
36833;SDS011;48003;52.084;5.224;2022-12-07T03:56:32;6.7;;;2.0;;
36833;SDS011;48003;52.084;5.224;2022-12-07T03:58:12;6.5;;;2.0;;
36833;SDS011;48003;52.084;5.224;2022-12-07T04:01:31;5.6;;;2.1;;
36833;SDS011;48003;52.084;5.224;2022-12-07T04:03:08;7.6;;;2.4;;
36833;SDS011;48003;52.084;5.224;2022-12-07T04:04:45;7.7;;;2.31;;
36833;SDS011;48003;52.084;5.224;2022-12-07T04:07:57;7.4;;;2.4;;
36833;SDS011;48003;52.084;5.224;2022-12-07T04:09:33;7.8;;;2.21;;
36833;SDS011;48003;52.084;5.224;2022-12-07T04:11:09;5.6;;;1.7;;
36833;SDS011;48003;52.084;5.224;2022-12-07T04:14:23;7.1;;;1.9;;
36833;SDS011;48003;52.084;5.224;2022-12-07T04:15:59;9.1;;;1.8;;
36833;SDS011;48003;52.084;5.224;2022-12-07T04:17:35;8.2;;;2.0;;
36833;SDS011;48003;52.084;5.224;2022-12-07T04:19:12;4.91;;;1.5;;
36833;SDS011;48003;52.084;5.224;2022-12-07T04:22:25;9.6;;;1.7;;
36833;SDS011;48003;52.084;5.224;2022-12-07T04:24:02;6.0;;;1.5;;
36833;SDS011;48003;52.084;5.224;2022-12-07T04:25:39;4.3;;;1.6;;
36833;SDS011;48003;52.084;5.224;2022-12-07T04:28:52;7.8;;;1.6;;
36833;SDS011;48003;52.084;5.224;2022-12-07T04:30:28;7.7;;;1.7;;
36833;SDS011;48003;52.084;5.224;2022-12-07T04:32:05;9.21;;;1.7;;
36833;SDS011;48003;52.084;5.224;2022-12-07T04:35:17;7.4;;;1.5;;
36833;SDS011;48003;52.084;5.224;2022-12-07T04:36:53;5.6;;;1.4;;
36833;SDS011;48003;52.084;5.224;2022-12-07T04:38:29;5.2;;;1.5;;
36833;SDS011;48003;52.084;5.224;2022-12-07T04:40:07;6.7;;;1.4;;
36833;SDS011;48003;52.084;5.224;2022-12-07T04:43:21;7.0;;;1.3;;
36833;SDS011;48003;52.084;5.224;2022-12-07T04:44:57;7.4;;;1.5;;
36833;SDS011;48003;52.084;5.224;2022-12-07T04:46:33;6.9;;;1.6;;
36833;SDS011;48003;52.084;5.224;2022-12-07T04:49:45;5.9;;;1.6;;
36833;SDS011;48003;52.084;5.224;2022-12-07T04:51:22;5.8;;;1.4;;
36833;SDS011;48003;52.084;5.224;2022-12-07T04:53:01;6.5;;;1.5;;
36833;SDS011;48003;52.084;5.224;2022-12-07T04:56:13;4.8;;;1.6;;
36833;SDS011;48003;52.084;5.224;2022-12-07T04:57:50;5.11;;;1.3;;
36833;SDS011;48003;52.084;5.224;2022-12-07T04:59:27;6.4;;;1.3;;
36833;SDS011;48003;52.084;5.224;2022-12-07T05:01:03;7.9;;;1.7;;
36833;SDS011;48003;52.084;5.224;2022-12-07T05:04:16;8.81;;;2.0;;
36833;SDS011;48003;52.084;5.224;2022-12-07T05:05:52;9.81;;;1.6;;
36833;SDS011;48003;52.084;5.224;2022-12-07T05:07:28;7.3;;;1.7;;
36833;SDS011;48003;52.084;5.224;2022-12-07T05:10:42;8.31;;;1.6;;
36833;SDS011;48003;52.084;5.224;2022-12-07T05:12:18;5.3;;;1.5;;
36833;SDS011;48003;52.084;5.224;2022-12-07T05:13:54;6.9;;;1.5;;
36833;SDS011;48003;52.084;5.224;2022-12-07T05:17:07;7.3;;;1.8;;
36833;SDS011;48003;52.084;5.224;2022-12-07T05:18:43;7.7;;;1.4;;
36833;SDS011;48003;52.084;5.224;2022-12-07T05:20:20;6.1;;;1.6;;
36833;SDS011;48003;52.084;5.224;2022-12-07T05:21:56;8.5;;;1.8;;
36833;SDS011;48003;52.084;5.224;2022-12-07T05:25:08;5.4;;;1.6;;
36833;SDS011;48003;52.084;5.224;2022-12-07T05:26:45;7.7;;;1.7;;
36833;SDS011;48003;52.084;5.224;2022-12-07T05:28:22;7.7;;;1.7;;
36833;SDS011;48003;52.084;5.224;2022-12-07T05:31:34;8.6;;;1.7;;
36833;SDS011;48003;52.084;5.224;2022-12-07T05:33:10;7.9;;;1.7;;
36833;SDS011;48003;52.084;5.224;2022-12-07T05:34:46;7.8;;;1.6;;
36833;SDS011;48003;52.084;5.224;2022-12-07T05:37:59;7.1;;;2.0;;
36833;SDS011;48003;52.084;5.224;2022-12-07T05:39:34;6.3;;;1.9;;
36833;SDS011;48003;52.084;5.224;2022-12-07T05:42:11;6.5;;;1.8;;
36833;SDS011;48003;52.084;5.224;2022-12-07T05:43:48;5.11;;;1.9;;
36833;SDS011;48003;52.084;5.224;2022-12-07T05:45:24;6.1;;;1.8;;
36833;SDS011;48003;52.084;5.224;2022-12-07T05:47:00;6.2;;;1.9;;
36833;SDS011;48003;52.084;5.224;2022-12-07T05:50:12;7.0;;;1.9;;
36833;SDS011;48003;52.084;5.224;2022-12-07T05:51:48;8.31;;;1.8;;
36833;SDS011;48003;52.084;5.224;2022-12-07T05:53:25;7.7;;;2.0;;
36833;SDS011;48003;52.084;5.224;2022-12-07T05:56:37;6.4;;;1.9;;
36833;SDS011;48003;52.084;5.224;2022-12-07T05:59:30;10.5;;;2.0;;
36833;SDS011;48003;52.084;5.224;2022-12-07T06:01:06;7.7;;;1.8;;
36833;SDS011;48003;52.084;5.224;2022-12-07T06:02:42;8.6;;;2.1;;
36833;SDS011;48003;52.084;5.224;2022-12-07T06:04:19;8.1;;;1.7;;
36833;SDS011;48003;52.084;5.224;2022-12-07T06:05:56;8.4;;;1.8;;
36833;SDS011;48003;52.084;5.224;2022-12-07T06:09:08;8.0;;;1.8;;
36833;SDS011;48003;52.084;5.224;2022-12-07T06:10:46;9.5;;;2.21;;
36833;SDS011;48003;52.084;5.224;2022-12-07T06:12:39;6.2;;;1.9;;
36833;SDS011;48003;52.084;5.224;2022-12-07T06:14:16;9.21;;;1.9;;
36833;SDS011;48003;52.084;5.224;2022-12-07T06:17:28;9.4;;;2.0;;
36833;SDS011;48003;52.084;5.224;2022-12-07T06:19:04;6.1;;;1.7;;
36833;SDS011;48003;52.084;5.224;2022-12-07T06:20:40;9.5;;;1.6;;
36833;SDS011;48003;52.084;5.224;2022-12-07T06:23:54;6.2;;;1.7;;
36833;SDS011;48003;52.084;5.224;2022-12-07T06:25:30;7.7;;;2.0;;
36833;SDS011;48003;52.084;5.224;2022-12-07T06:27:06;6.9;;;1.7;;
36833;SDS011;48003;52.084;5.224;2022-12-07T06:30:19;10.21;;;1.7;;
36833;SDS011;48003;52.084;5.224;2022-12-07T06:31:56;6.4;;;1.9;;
36833;SDS011;48003;52.084;5.224;2022-12-07T06:33:32;9.81;;;1.9;;
36833;SDS011;48003;52.084;5.224;2022-12-07T06:35:08;5.9;;;1.9;;
36833;SDS011;48003;52.084;5.224;2022-12-07T06:38:23;7.6;;;2.31;;
36833;SDS011;48003;52.084;5.224;2022-12-07T06:39:59;7.0;;;2.0;;
36833;SDS011;48003;52.084;5.224;2022-12-07T06:41:36;7.4;;;2.21;;
36833;SDS011;48003;52.084;5.224;2022-12-07T06:44:50;8.31;;;2.1;;
36833;SDS011;48003;52.084;5.224;2022-12-07T06:46:26;7.6;;;1.9;;
36833;SDS011;48003;52.084;5.224;2022-12-07T06:48:02;7.9;;;1.9;;
36833;SDS011;48003;52.084;5.224;2022-12-07T06:51:15;9.71;;;1.9;;
36833;SDS011;48003;52.084;5.224;2022-12-07T06:52:52;7.1;;;2.21;;
36833;SDS011;48003;52.084;5.224;2022-12-07T06:54:30;7.4;;;1.8;;
36833;SDS011;48003;52.084;5.224;2022-12-07T06:56:06;8.5;;;2.1;;
36833;SDS011;48003;52.084;5.224;2022-12-07T06:59:20;9.9;;;1.9;;
36833;SDS011;48003;52.084;5.224;2022-12-07T07:00:57;8.0;;;2.21;;
36833;SDS011;48003;52.084;5.224;2022-12-07T07:02:33;7.7;;;2.1;;
36833;SDS011;48003;52.084;5.224;2022-12-07T07:05:45;9.81;;;2.9;;
36833;SDS011;48003;52.084;5.224;2022-12-07T07:07:21;11.7;;;3.9;;
36833;SDS011;48003;52.084;5.224;2022-12-07T07:08:58;8.9;;;3.2;;
36833;SDS011;48003;52.084;5.224;2022-12-07T07:12:11;8.5;;;2.8;;
36833;SDS011;48003;52.084;5.224;2022-12-07T07:13:47;10.7;;;2.5;;
36833;SDS011;48003;52.084;5.224;2022-12-07T07:15:23;7.8;;;3.0;;
36833;SDS011;48003;52.084;5.224;2022-12-07T07:17:00;7.6;;;2.5;;
36833;SDS011;48003;52.084;5.224;2022-12-07T07:20:13;7.5;;;1.9;;
36833;SDS011;48003;52.084;5.224;2022-12-07T07:21:49;9.71;;;2.1;;
36833;SDS011;48003;52.084;5.224;2022-12-07T07:23:25;8.2;;;2.1;;
36833;SDS011;48003;52.084;5.224;2022-12-07T07:26:38;5.9;;;1.9;;
36833;SDS011;48003;52.084;5.224;2022-12-07T07:28:15;10.7;;;2.1;;
36833;SDS011;48003;52.084;5.224;2022-12-07T07:29:52;10.6;;;1.9;;
36833;SDS011;48003;52.084;5.224;2022-12-07T07:33:04;12.2;;;2.0;;
36833;SDS011;48003;52.084;5.224;2022-12-07T07:34:41;10.3;;;2.31;;
36833;SDS011;48003;52.084;5.224;2022-12-07T07:36:18;9.5;;;2.0;;
36833;SDS011;48003;52.084;5.224;2022-12-07T07:37:54;8.1;;;2.21;;
36833;SDS011;48003;52.084;5.224;2022-12-07T07:41:07;8.4;;;2.1;;
36833;SDS011;48003;52.084;5.224;2022-12-07T07:42:43;11.5;;;2.6;;
36833;SDS011;48003;52.084;5.224;2022-12-07T07:44:19;9.1;;;2.5;;
36833;SDS011;48003;52.084;5.224;2022-12-07T07:47:31;7.3;;;2.1;;
36833;SDS011;48003;52.084;5.224;2022-12-07T07:49:08;9.5;;;2.0;;
36833;SDS011;48003;52.084;5.224;2022-12-07T07:50:45;10.7;;;2.7;;
36833;SDS011;48003;52.084;5.224;2022-12-07T07:53:57;10.4;;;2.4;;
36833;SDS011;48003;52.084;5.224;2022-12-07T07:55:33;9.4;;;2.4;;
36833;SDS011;48003;52.084;5.224;2022-12-07T07:57:10;9.71;;;2.5;;
36833;SDS011;48003;52.084;5.224;2022-12-07T07:58:46;11.2;;;2.6;;
36833;SDS011;48003;52.084;5.224;2022-12-07T08:01:58;7.5;;;2.4;;
36833;SDS011;48003;52.084;5.224;2022-12-07T08:03:34;8.2;;;2.9;;
36833;SDS011;48003;52.084;5.224;2022-12-07T08:05:12;7.9;;;2.21;;
36833;SDS011;48003;52.084;5.224;2022-12-07T08:08:25;8.81;;;2.8;;
36833;SDS011;48003;52.084;5.224;2022-12-07T08:10:01;9.9;;;2.4;;
36833;SDS011;48003;52.084;5.224;2022-12-07T08:11:38;9.6;;;2.4;;
36833;SDS011;48003;52.084;5.224;2022-12-07T08:14:51;8.6;;;2.1;;
36833;SDS011;48003;52.084;5.224;2022-12-07T08:16:28;10.5;;;2.4;;
36833;SDS011;48003;52.084;5.224;2022-12-07T08:18:05;9.4;;;2.0;;
36833;SDS011;48003;52.084;5.224;2022-12-07T08:19:42;8.71;;;2.1;;
36833;SDS011;48003;52.084;5.224;2022-12-07T08:22:54;10.0;;;2.1;;
36833;SDS011;48003;52.084;5.224;2022-12-07T08:24:32;8.81;;;2.21;;
36833;SDS011;48003;52.084;5.224;2022-12-07T08:26:09;12.7;;;2.6;;
36833;SDS011;48003;52.084;5.224;2022-12-07T08:29:25;11.2;;;2.4;;
36833;SDS011;48003;52.084;5.224;2022-12-07T08:31:02;8.81;;;2.4;;
36833;SDS011;48003;52.084;5.224;2022-12-07T08:32:39;10.0;;;2.8;;
36833;SDS011;48003;52.084;5.224;2022-12-07T08:35:52;11.0;;;3.0;;
36833;SDS011;48003;52.084;5.224;2022-12-07T08:37:28;10.1;;;2.5;;
36833;SDS011;48003;52.084;5.224;2022-12-07T08:39:04;9.21;;;2.31;;
36833;SDS011;48003;52.084;5.224;2022-12-07T08:40:40;10.0;;;2.4;;
36833;SDS011;48003;52.084;5.224;2022-12-07T08:43:53;11.2;;;2.0;;
36833;SDS011;48003;52.084;5.224;2022-12-07T08:45:32;7.2;;;2.21;;
36833;SDS011;48003;52.084;5.224;2022-12-07T08:47:08;8.1;;;2.5;;
36833;SDS011;48003;52.084;5.224;2022-12-07T08:50:28;7.7;;;1.8;;
36833;SDS011;48003;52.084;5.224;2022-12-07T08:52:07;8.6;;;1.9;;
36833;SDS011;48003;52.084;5.224;2022-12-07T08:53:43;9.21;;;1.9;;
36833;SDS011;48003;52.084;5.224;2022-12-07T08:55:20;7.2;;;1.7;;
36833;SDS011;48003;52.084;5.224;2022-12-07T08:58:33;7.2;;;1.7;;
36833;SDS011;48003;52.084;5.224;2022-12-07T09:00:12;8.5;;;1.9;;
36833;SDS011;48003;52.084;5.224;2022-12-07T09:01:50;8.6;;;2.1;;
36833;SDS011;48003;52.084;5.224;2022-12-07T09:05:02;7.2;;;1.8;;
36833;SDS011;48003;52.084;5.224;2022-12-07T09:06:40;10.6;;;2.0;;
36833;SDS011;48003;52.084;5.224;2022-12-07T09:08:18;10.9;;;2.31;;
36833;SDS011;48003;52.084;5.224;2022-12-07T09:09:55;10.1;;;2.1;;
36833;SDS011;48003;52.084;5.224;2022-12-07T09:13:08;9.5;;;2.0;;
36833;SDS011;48003;52.084;5.224;2022-12-07T09:14:44;9.31;;;1.8;;
36833;SDS011;48003;52.084;5.224;2022-12-07T09:16:20;8.81;;;2.0;;
36833;SDS011;48003;52.084;5.224;2022-12-07T09:19:33;10.1;;;2.21;;
36833;SDS011;48003;52.084;5.224;2022-12-07T09:21:09;8.4;;;2.21;;
36833;SDS011;48003;52.084;5.224;2022-12-07T09:22:45;10.6;;;2.0;;
36833;SDS011;48003;52.084;5.224;2022-12-07T09:25:59;7.5;;;2.1;;
36833;SDS011;48003;52.084;5.224;2022-12-07T09:27:35;7.9;;;2.4;;
36833;SDS011;48003;52.084;5.224;2022-12-07T09:29:12;9.31;;;2.1;;
36833;SDS011;48003;52.084;5.224;2022-12-07T09:30:48;7.9;;;1.9;;
36833;SDS011;48003;52.084;5.224;2022-12-07T09:34:01;9.5;;;1.8;;
36833;SDS011;48003;52.084;5.224;2022-12-07T09:35:37;8.6;;;2.21;;
36833;SDS011;48003;52.084;5.224;2022-12-07T09:37:14;8.4;;;1.9;;
36833;SDS011;48003;52.084;5.224;2022-12-07T09:40:27;11.0;;;2.0;;
36833;SDS011;48003;52.084;5.224;2022-12-07T09:42:04;9.21;;;1.9;;
36833;SDS011;48003;52.084;5.224;2022-12-07T09:43:42;7.6;;;1.7;;
36833;SDS011;48003;52.084;5.224;2022-12-07T09:47:00;9.31;;;2.0;;
36833;SDS011;48003;52.084;5.224;2022-12-07T09:48:37;6.9;;;2.0;;
36833;SDS011;48003;52.084;5.224;2022-12-07T09:50:14;10.1;;;2.1;;
36833;SDS011;48003;52.084;5.224;2022-12-07T09:52:02;7.7;;;1.9;;
36833;SDS011;48003;52.084;5.224;2022-12-07T09:53:54;6.9;;;2.0;;
36833;SDS011;48003;52.084;5.224;2022-12-07T09:57:27;7.3;;;1.7;;
36833;SDS011;48003;52.084;5.224;2022-12-07T09:59:06;9.1;;;1.7;;
36833;SDS011;48003;52.084;5.224;2022-12-07T10:00:50;9.6;;;1.7;;
36833;SDS011;48003;52.084;5.224;2022-12-07T10:02:34;6.3;;;1.6;;
36833;SDS011;48003;52.084;5.224;2022-12-07T10:05:54;9.0;;;1.8;;
36833;SDS011;48003;52.084;5.224;2022-12-07T10:07:31;6.8;;;1.7;;
36833;SDS011;48003;52.084;5.224;2022-12-07T10:09:09;7.9;;;1.8;;
36833;SDS011;48003;52.084;5.224;2022-12-07T10:10:48;6.2;;;1.4;;
36833;SDS011;48003;52.084;5.224;2022-12-07T10:14:10;8.4;;;1.7;;
36833;SDS011;48003;52.084;5.224;2022-12-07T10:15:50;6.6;;;1.8;;
36833;SDS011;48003;52.084;5.224;2022-12-07T10:17:30;7.9;;;1.6;;
36833;SDS011;48003;52.084;5.224;2022-12-07T10:19:17;5.9;;;1.4;;
36833;SDS011;48003;52.084;5.224;2022-12-07T10:22:52;8.31;;;1.7;;
36833;SDS011;48003;52.084;5.224;2022-12-07T10:24:30;6.0;;;1.7;;
36833;SDS011;48003;52.084;5.224;2022-12-07T10:26:40;6.3;;;1.6;;
36833;SDS011;48003;52.084;5.224;2022-12-07T10:28:33;8.2;;;1.5;;
36833;SDS011;48003;52.084;5.224;2022-12-07T10:30:12;8.4;;;2.0;;
36833;SDS011;48003;52.084;5.224;2022-12-07T10:31:58;7.6;;;1.7;;
36833;SDS011;48003;52.084;5.224;2022-12-07T10:33:44;9.9;;;2.0;;
36833;SDS011;48003;52.084;5.224;2022-12-07T10:37:20;7.6;;;1.8;;
36833;SDS011;48003;52.084;5.224;2022-12-07T10:38:59;7.4;;;1.6;;
36833;SDS011;48003;52.084;5.224;2022-12-07T10:40:38;8.2;;;1.9;;
36833;SDS011;48003;52.084;5.224;2022-12-07T10:42:17;7.6;;;1.8;;
36833;SDS011;48003;52.084;5.224;2022-12-07T10:45:34;6.5;;;1.6;;
36833;SDS011;48003;52.084;5.224;2022-12-07T10:47:22;8.81;;;1.7;;
36833;SDS011;48003;52.084;5.224;2022-12-07T10:49:12;7.9;;;1.6;;
36833;SDS011;48003;52.084;5.224;2022-12-07T10:52:28;5.8;;;1.3;;
36833;SDS011;48003;52.084;5.224;2022-12-07T10:54:20;4.61;;;1.4;;
36833;SDS011;48003;52.084;5.224;2022-12-07T10:56:17;5.5;;;1.5;;
36833;SDS011;48003;52.084;5.224;2022-12-07T10:58:25;4.61;;;1.11;;
36833;SDS011;48003;52.084;5.224;2022-12-07T11:00:15;7.2;;;1.3;;
36833;SDS011;48003;52.084;5.224;2022-12-07T11:01:57;8.6;;;1.3;;
36833;SDS011;48003;52.084;5.224;2022-12-07T11:03:53;4.5;;;1.2;;
36833;SDS011;48003;52.084;5.224;2022-12-07T11:05:53;6.6;;;1.2;;
36833;SDS011;48003;52.084;5.224;2022-12-07T11:07:42;5.9;;;1.11;;
36833;SDS011;48003;52.084;5.224;2022-12-07T11:10:00;9.1;;;1.8;;
36833;SDS011;48003;52.084;5.224;2022-12-07T11:11:44;9.5;;;1.7;;
36833;SDS011;48003;52.084;5.224;2022-12-07T11:13:32;6.5;;;1.2;;
36833;SDS011;48003;52.084;5.224;2022-12-07T11:17:05;6.9;;;1.5;;
36833;SDS011;48003;52.084;5.224;2022-12-07T11:18:51;6.8;;;1.3;;
36833;SDS011;48003;52.084;5.224;2022-12-07T11:20:43;6.1;;;1.2;;
36833;SDS011;48003;52.084;5.224;2022-12-07T11:22:26;6.5;;;1.4;;
36833;SDS011;48003;52.084;5.224;2022-12-07T11:24:14;3.3;;;0.9;;
36833;SDS011;48003;52.084;5.224;2022-12-07T11:25:54;7.5;;;1.5;;
36833;SDS011;48003;52.084;5.224;2022-12-07T11:29:37;4.5;;;0.9;;
36833;SDS011;48003;52.084;5.224;2022-12-07T11:31:31;6.7;;;1.2;;
36833;SDS011;48003;52.084;5.224;2022-12-07T11:33:29;6.5;;;1.3;;
36833;SDS011;48003;52.084;5.224;2022-12-07T11:35:17;8.1;;;1.3;;
36833;SDS011;48003;52.084;5.224;2022-12-07T11:37:08;6.6;;;1.3;;
36833;SDS011;48003;52.084;5.224;2022-12-07T11:38:50;3.8;;;0.9;;
36833;SDS011;48003;52.084;5.224;2022-12-07T11:40:31;5.2;;;1.3;;
36833;SDS011;48003;52.084;5.224;2022-12-07T11:43:58;6.4;;;1.3;;
36833;SDS011;48003;52.084;5.224;2022-12-07T11:45:41;5.6;;;1.4;;
36833;SDS011;48003;52.084;5.224;2022-12-07T11:47:23;4.7;;;1.3;;
36833;SDS011;48003;52.084;5.224;2022-12-07T11:49:08;8.81;;;1.11;;
36833;SDS011;48003;52.084;5.224;2022-12-07T11:52:38;7.1;;;1.4;;
36833;SDS011;48003;52.084;5.224;2022-12-07T11:54:25;5.11;;;1.6;;
36833;SDS011;48003;52.084;5.224;2022-12-07T11:56:08;8.0;;;1.9;;
36833;SDS011;48003;52.084;5.224;2022-12-07T11:57:50;7.9;;;2.0;;
36833;SDS011;48003;52.084;5.224;2022-12-07T11:59:36;7.5;;;1.9;;
36833;SDS011;48003;52.084;5.224;2022-12-07T12:03:24;5.4;;;1.5;;
36833;SDS011;48003;52.084;5.224;2022-12-07T12:05:12;6.5;;;1.6;;
36833;SDS011;48003;52.084;5.224;2022-12-07T12:06:53;6.4;;;1.6;;
36833;SDS011;48003;52.084;5.224;2022-12-07T12:08:30;6.2;;;1.4;;
36833;SDS011;48003;52.084;5.224;2022-12-07T12:10:15;6.3;;;1.4;;
36833;SDS011;48003;52.084;5.224;2022-12-07T12:12:01;6.0;;;1.5;;
36833;SDS011;48003;52.084;5.224;2022-12-07T12:16:01;6.8;;;2.0;;
36833;SDS011;48003;52.084;5.224;2022-12-07T12:18:06;6.8;;;1.5;;
36833;SDS011;48003;52.084;5.224;2022-12-07T12:21:02;6.6;;;1.6;;
36833;SDS011;48003;52.084;5.224;2022-12-07T12:22:44;6.5;;;1.8;;
36833;SDS011;48003;52.084;5.224;2022-12-07T12:24:27;5.7;;;1.4;;
36833;SDS011;48003;52.084;5.224;2022-12-07T12:27:54;7.9;;;1.6;;
36833;SDS011;48003;52.084;5.224;2022-12-07T12:29:33;5.5;;;1.3;;
36833;SDS011;48003;52.084;5.224;2022-12-07T12:31:13;6.8;;;1.5;;
36833;SDS011;48003;52.084;5.224;2022-12-07T12:32:51;6.9;;;1.5;;
36833;SDS011;48003;52.084;5.224;2022-12-07T12:36:18;6.8;;;1.3;;
36833;SDS011;48003;52.084;5.224;2022-12-07T12:38:30;7.4;;;1.4;;
36833;SDS011;48003;52.084;5.224;2022-12-07T12:40:42;6.9;;;1.4;;
36833;SDS011;48003;52.084;5.224;2022-12-07T12:42:19;5.3;;;1.5;;
36833;SDS011;48003;52.084;5.224;2022-12-07T12:43:55;7.3;;;1.5;;
36833;SDS011;48003;52.084;5.224;2022-12-07T12:45:32;5.6;;;2.0;;
36833;SDS011;48003;52.084;5.224;2022-12-07T12:50:22;7.9;;;2.5;;
36833;SDS011;48003;52.084;5.224;2022-12-07T12:58:46;6.3;;;1.8;;
36833;SDS011;48003;52.084;5.224;2022-12-07T13:00:23;8.31;;;1.8;;
36833;SDS011;48003;52.084;5.224;2022-12-07T13:03:56;7.3;;;1.6;;
36833;SDS011;48003;52.084;5.224;2022-12-07T13:05:33;6.2;;;1.6;;
36833;SDS011;48003;52.084;5.224;2022-12-07T13:07:11;6.7;;;1.5;;
36833;SDS011;48003;52.084;5.224;2022-12-07T13:08:49;6.4;;;1.5;;
36833;SDS011;48003;52.084;5.224;2022-12-07T13:10:33;7.1;;;1.7;;